Time;durP1;ratioP1;P1;durP2;ratioP2;P2;SDS_P1;SDS_P2;PMS_P1;PMS_P2;Temp;Humidity;BMP_temperature;BMP_pressure;BME280_temperature;BME280_humidity;BME280_pressure;Samples;Min_cycle;Max_cycle;Signal;HPM_P1;HPM_P2
2023/01/05 00:01:02;;;;;;;1.33;1.23;;;10.40;95.80;;;;;;5042697;28;20272;-85
2023/01/05 00:03:28;;;;;;;1.08;0.98;;;10.50;95.80;;;;;;5040286;28;20662;-85
2023/01/05 00:05:59;;;;;;;3.50;1.75;;;10.40;95.80;;;;;;5036803;28;20236;-85
2023/01/05 00:08:26;;;;;;;0.80;0.80;;;10.50;95.80;;;;;;5045382;28;20204;-84
2023/01/05 00:24:39;;;;;;;1.00;0.88;;;10.50;95.20;;;;;;5048780;28;20255;-85
2023/01/05 00:27:06;;;;;;;2.22;1.08;;;10.50;95.30;;;;;;5039879;28;20201;-84
2023/01/05 00:29:35;;;;;;;1.67;1.10;;;10.50;95.20;;;;;;5044042;28;20232;-85
2023/01/05 00:32:02;;;;;;;1.92;1.73;;;10.50;95.10;;;;;;5047180;28;20194;-85
2023/01/05 00:34:28;;;;;;;0.80;0.80;;;10.50;95.10;;;;;;5045769;28;20610;-85
2023/01/05 00:36:55;;;;;;;0.80;0.80;;;10.50;95.00;;;;;;5040049;28;20199;-84
2023/01/05 00:39:22;;;;;;;0.63;0.63;;;10.50;94.90;;;;;;5044811;28;20255;-84
2023/01/05 00:41:49;;;;;;;0.60;0.60;;;10.50;95.00;;;;;;5045870;28;20300;-85
2023/01/05 00:44:16;;;;;;;0.80;0.60;;;10.60;94.90;;;;;;5041963;28;20213;-85
2023/01/05 00:46:44;;;;;;;0.50;0.50;;;10.60;94.50;;;;;;5042052;28;20205;-85
2023/01/05 00:49:11;;;;;;;2.33;1.88;;;10.60;94.70;;;;;;5040487;28;20230;-85
2023/01/05 00:51:38;;;;;;;0.75;0.70;;;10.60;94.80;;;;;;5040615;28;20209;-85
2023/01/05 00:54:05;;;;;;;0.52;0.52;;;10.60;94.50;;;;;;5039094;28;20660;-85
2023/01/05 00:56:32;;;;;;;0.80;0.80;;;10.60;94.90;;;;;;5045062;28;20190;-85
2023/01/05 00:58:59;;;;;;;0.60;0.60;;;10.70;94.40;;;;;;5043239;28;20940;-85
2023/01/05 01:01:25;;;;;;;0.90;0.57;;;10.70;94.50;;;;;;5037218;28;20685;-85
2023/01/05 01:03:53;;;;;;;0.65;0.65;;;10.70;94.20;;;;;;5041156;28;20197;-85
2023/01/05 01:06:20;;;;;;;0.80;0.65;;;10.70;94.10;;;;;;5042274;28;20202;-85
2023/01/05 01:08:47;;;;;;;0.93;0.60;;;10.70;94.10;;;;;;5044612;28;20677;-85
2023/01/05 01:11:15;;;;;;;0.50;0.50;;;10.70;94.10;;;;;;5038492;28;20388;-85
2023/01/05 01:13:42;;;;;;;0.70;0.70;;;10.80;93.80;;;;;;5041415;28;20202;-84
2023/01/05 01:16:11;;;;;;;0.68;0.68;;;10.80;93.50;;;;;;5036416;28;20202;-85
2023/01/05 01:18:38;;;;;;;0.80;0.80;;;10.80;93.50;;;;;;5034245;28;20588;-85
2023/01/05 01:21:06;;;;;;;1.48;1.35;;;10.70;93.70;;;;;;5044836;28;20697;-84
2023/01/05 01:23:33;;;;;;;0.77;0.70;;;10.70;93.70;;;;;;5041841;28;20230;-85
2023/01/05 01:26:04;;;;;;;1.45;1.02;;;10.70;93.60;;;;;;5038823;28;20202;-85
2023/01/05 01:28:31;;;;;;;0.70;0.70;;;10.80;93.80;;;;;;5043677;28;20208;-85
2023/01/05 01:30:57;;;;;;;0.73;0.73;;;10.70;93.70;;;;;;5036162;28;20218;-85
2023/01/05 01:33:24;;;;;;;4.63;0.55;;;10.70;93.70;;;;;;5043504;28;20209;-85
2023/01/05 01:35:51;;;;;;;1.00;0.50;;;10.70;93.90;;;;;;5042334;28;20204;-84
2023/01/05 01:38:19;;;;;;;0.63;0.63;;;10.70;94.00;;;;;;5041832;28;20198;-84
2023/01/05 01:40:47;;;;;;;0.60;0.60;;;10.70;93.80;;;;;;5038875;28;20222;-85
2023/01/05 01:43:15;;;;;;;0.50;0.50;;;10.70;93.70;;;;;;5040364;28;20212;-85
2023/01/05 01:45:43;;;;;;;0.50;0.50;;;10.70;93.90;;;;;;5042231;28;20213;-85
2023/01/05 01:48:13;;;;;;;0.50;0.50;;;10.70;93.90;;;;;;5034418;28;20207;-85
2023/01/05 01:50:45;;;;;;;0.40;0.40;;;10.70;93.90;;;;;;5037852;28;20206;-84
2023/01/05 01:53:18;;;;;;;0.40;0.40;;;10.70;94.00;;;;;;5048546;28;20216;-84
2023/01/05 01:55:47;;;;;;;0.77;0.77;;;10.70;94.10;;;;;;5037910;28;20210;-85
2023/01/05 01:58:18;;;;;;;0.93;0.40;;;10.70;93.90;;;;;;5039865;28;20212;-85
2023/01/05 02:04:09;;;;;;;0.50;0.50;;;10.80;93.80;;;;;;5035802;28;20233;-85
2023/01/05 02:06:36;;;;;;;0.60;0.60;;;10.80;93.80;;;;;;5044374;28;20213;-85
2023/01/05 02:09:05;;;;;;;0.60;0.60;;;10.80;93.90;;;;;;5037682;28;20199;-85
2023/01/05 02:11:45;;;;;;;0.50;0.50;;;10.80;94.00;;;;;;5037335;28;20237;-85
2023/01/05 02:14:25;;;;;;;0.70;0.60;;;10.70;94.40;;;;;;5044711;28;20206;-85
2023/01/05 02:17:03;;;;;;;0.60;0.60;;;10.80;94.40;;;;;;5044469;28;20210;-84
2023/01/05 02:20:15;;;;;;;0.95;0.95;;;10.70;95.20;;;;;;5044854;28;20725;-85
2023/01/05 02:23:18;;;;;;;1.02;0.57;;;10.60;95.90;;;;;;5041435;28;20226;-84
2023/01/05 02:26:12;;;;;;;0.50;0.50;;;10.60;95.90;;;;;;5044675;28;20193;-85
2023/01/05 02:29:07;;;;;;;0.63;0.63;;;10.60;95.80;;;;;;5043815;28;20202;-85
2023/01/05 02:31:40;;;;;;;0.50;0.50;;;10.60;95.50;;;;;;5047697;28;20201;-84
2023/01/05 02:34:12;;;;;;;0.47;0.47;;;10.70;95.10;;;;;;5038483;28;20677;-85
2023/01/05 02:36:49;;;;;;;2.35;0.60;;;10.70;94.80;;;;;;5037560;28;20207;-84
2023/01/05 02:39:18;;;;;;;0.55;0.55;;;10.80;94.60;;;;;;5040438;28;20632;-84
2023/01/05 02:41:52;;;;;;;0.40;0.40;;;10.90;94.30;;;;;;5038682;28;20695;-85
2023/01/05 02:44:19;;;;;;;0.70;0.55;;;10.80;94.20;;;;;;5041082;28;20194;-85
2023/01/05 02:46:58;;;;;;;0.70;0.70;;;10.90;94.40;;;;;;5037024;28;20686;-85
2023/01/05 02:49:25;;;;;;;0.60;0.60;;;10.90;94.40;;;;;;5037968;28;20682;-84
2023/01/05 02:51:58;;;;;;;0.50;0.50;;;10.80;94.70;;;;;;5040926;28;20213;-85
2023/01/05 02:54:30;;;;;;;0.60;0.60;;;10.80;95.50;;;;;;5038172;28;20202;-85
2023/01/05 02:57:01;;;;;;;0.52;0.52;;;10.70;95.90;;;;;;5040778;28;20225;-85
2023/01/05 02:59:35;;;;;;;0.60;0.60;;;10.60;96.60;;;;;;5041802;28;20252;-85
2023/01/05 03:02:06;;;;;;;0.95;0.88;;;10.50;96.90;;;;;;5040496;28;20760;-85
2023/01/05 03:04:38;;;;;;;0.73;0.63;;;10.40;96.80;;;;;;5040410;28;20677;-85
2023/01/05 03:07:11;;;;;;;0.52;0.52;;;10.40;97.30;;;;;;5037092;28;20652;-85
2023/01/05 03:09:39;;;;;;;0.88;0.60;;;10.30;97.60;;;;;;5040513;28;20198;-85
2023/01/05 03:15:00;;;;;;;0.50;0.50;;;10.30;97.80;;;;;;5039186;28;20285;-84
2023/01/05 03:17:32;;;;;;;0.65;0.60;;;10.20;98.00;;;;;;5037814;28;20237;-85
2023/01/05 03:20:00;;;;;;;0.60;0.60;;;10.20;98.10;;;;;;5040066;28;20563;-85
2023/01/05 03:36:41;;;;;;;0.50;0.50;;;10.00;99.90;;;;;;5036475;28;20213;-85
2023/01/05 03:39:10;;;;;;;1.25;0.80;;;10.10;99.20;;;;;;5041176;28;20208;-85
2023/01/05 03:41:37;;;;;;;0.50;0.50;;;10.10;99.20;;;;;;5043776;28;20226;-84
2023/01/05 03:44:05;;;;;;;0.82;0.73;;;10.10;98.90;;;;;;5038534;28;20213;-85
2023/01/05 03:46:32;;;;;;;2.15;0.73;;;10.20;98.60;;;;;;5038323;28;20221;-85
2023/01/05 03:49:00;;;;;;;3.10;0.70;;;10.20;98.50;;;;;;5039800;28;20285;-85
2023/01/05 03:51:27;;;;;;;0.82;0.82;;;10.20;98.40;;;;;;5038352;28;20218;-84
2023/01/05 03:53:54;;;;;;;2.10;0.43;;;10.20;98.40;;;;;;5038955;28;20217;-85
2023/01/05 03:56:21;;;;;;;0.60;0.60;;;10.20;98.40;;;;;;5042725;28;20202;-85
2023/01/05 03:58:48;;;;;;;0.40;0.40;;;10.30;97.90;;;;;;5036561;28;20209;-85
2023/01/05 04:01:15;;;;;;;0.73;0.60;;;10.30;98.10;;;;;;5036194;28;20229;-85
2023/01/05 04:03:42;;;;;;;0.60;0.60;;;10.30;97.70;;;;;;5043139;28;20666;-85
2023/01/05 04:06:10;;;;;;;0.50;0.50;;;10.40;97.60;;;;;;5040183;28;20201;-85
2023/01/05 04:08:37;;;;;;;0.93;0.60;;;10.40;97.50;;;;;;5039685;28;20213;-85
2023/01/05 04:11:11;;;;;;;0.60;0.60;;;10.40;97.40;;;;;;5038769;28;20235;-85
2023/01/05 04:13:38;;;;;;;0.82;0.43;;;10.40;97.30;;;;;;5038223;28;20526;-85
2023/01/05 04:16:06;;;;;;;0.80;0.65;;;10.40;97.20;;;;;;5036664;28;20207;-85
2023/01/05 04:18:32;;;;;;;0.50;0.50;;;10.40;97.10;;;;;;5041209;28;20198;-85
2023/01/05 04:20:59;;;;;;;0.50;0.50;;;10.50;96.90;;;;;;5036234;28;20222;-85
2023/01/05 04:23:28;;;;;;;0.63;0.63;;;10.50;96.80;;;;;;5038697;28;20222;-85
2023/01/05 04:25:54;;;;;;;0.50;0.50;;;10.50;96.50;;;;;;5035552;28;20654;-85
2023/01/05 04:28:21;;;;;;;1.40;0.80;;;10.60;96.40;;;;;;5041008;28;20218;-85
2023/01/05 04:30:51;;;;;;;0.60;0.60;;;10.60;96.50;;;;;;5039145;28;20209;-85
2023/01/05 04:33:18;;;;;;;0.77;0.60;;;10.60;95.90;;;;;;5042863;28;20198;-85
2023/01/05 04:35:45;;;;;;;0.60;0.60;;;10.70;95.90;;;;;;5036218;28;20677;-85
2023/01/05 04:38:12;;;;;;;0.63;0.60;;;10.70;95.90;;;;;;5037412;28;20578;-85
2023/01/05 04:40:41;;;;;;;0.65;0.65;;;10.70;95.90;;;;;;5040949;28;20705;-85
2023/01/05 04:43:08;;;;;;;1.10;0.70;;;10.80;95.50;;;;;;5037003;28;20203;-85
2023/01/05 04:45:35;;;;;;;0.70;0.70;;;10.80;95.50;;;;;;5041452;28;20198;-85
2023/01/05 04:48:02;;;;;;;0.73;0.73;;;10.80;95.20;;;;;;5036283;28;20195;-85
2023/01/05 04:50:29;;;;;;;0.82;0.60;;;10.90;95.00;;;;;;5041607;28;20216;-85
2023/01/05 04:52:55;;;;;;;1.05;0.60;;;10.90;94.90;;;;;;5038654;28;20205;-85
2023/01/05 04:55:22;;;;;;;0.50;0.50;;;10.90;94.90;;;;;;5032472;28;20217;-85
2023/01/05 04:57:53;;;;;;;0.52;0.52;;;10.90;95.00;;;;;;5040735;28;20661;-85
2023/01/05 05:00:20;;;;;;;0.60;0.60;;;10.90;94.80;;;;;;5040962;28;20290;-84
2023/01/05 05:02:48;;;;;;;0.50;0.50;;;10.80;94.80;;;;;;5041007;28;20643;-85
2023/01/05 05:05:15;;;;;;;0.80;0.80;;;10.80;94.70;;;;;;5037878;28;20210;-85
2023/01/05 05:07:41;;;;;;;2.60;0.60;;;10.90;94.50;;;;;;5039246;28;20565;-85
2023/01/05 05:10:09;;;;;;;0.80;0.80;;;10.90;94.50;;;;;;5038319;28;20633;-85
2023/01/05 05:12:38;;;;;;;0.70;0.70;;;10.90;94.70;;;;;;5034435;28;20226;-85
2023/01/05 05:15:08;;;;;;;2.15;0.80;;;10.90;94.40;;;;;;5043782;28;20210;-85
2023/01/05 05:17:35;;;;;;;0.52;0.52;;;10.90;94.70;;;;;;5042132;28;20209;-85
2023/01/05 05:20:01;;;;;;;1.02;0.80;;;10.80;94.70;;;;;;5038091;28;20221;-85
2023/01/05 05:22:28;;;;;;;0.70;0.70;;;10.80;94.80;;;;;;5038133;28;20248;-85
2023/01/05 05:24:55;;;;;;;0.68;0.50;;;10.80;94.80;;;;;;5038386;28;20206;-85
2023/01/05 05:27:22;;;;;;;0.50;0.50;;;10.80;94.80;;;;;;5036575;28;20225;-85
2023/01/05 05:29:49;;;;;;;0.60;0.60;;;10.80;94.60;;;;;;5030609;28;20248;-85
2023/01/05 05:32:21;;;;;;;0.50;0.50;;;10.80;94.70;;;;;;5045640;28;20201;-85
2023/01/05 05:34:48;;;;;;;0.60;0.60;;;10.80;94.50;;;;;;5037208;28;20203;-85
2023/01/05 05:37:15;;;;;;;0.65;0.65;;;10.90;94.40;;;;;;5037724;28;20209;-85
2023/01/05 05:39:41;;;;;;;0.60;0.60;;;10.90;94.40;;;;;;5035545;28;20194;-85
2023/01/05 05:42:08;;;;;;;0.75;0.70;;;10.80;94.50;;;;;;5043001;28;20222;-85
2023/01/05 05:44:35;;;;;;;0.60;0.60;;;10.80;94.70;;;;;;5038681;28;20216;-85
2023/01/05 05:47:02;;;;;;;1.35;1.25;;;10.80;94.70;;;;;;5041421;28;20248;-86
2023/01/05 05:49:30;;;;;;;0.63;0.63;;;10.80;94.80;;;;;;5042735;28;20195;-85
2023/01/05 05:51:57;;;;;;;0.70;0.60;;;10.80;94.50;;;;;;5043017;28;20303;-85
2023/01/05 05:54:24;;;;;;;1.55;1.30;;;10.80;94.70;;;;;;5045355;28;20201;-85
2023/01/05 05:56:51;;;;;;;0.98;0.93;;;10.80;94.50;;;;;;5040658;28;20209;-85
2023/01/05 05:59:18;;;;;;;0.70;0.70;;;10.80;94.60;;;;;;5043468;28;20672;-85
2023/01/05 06:01:45;;;;;;;2.25;0.73;;;10.80;94.50;;;;;;5039854;28;20225;-84
2023/01/05 06:04:11;;;;;;;0.90;0.90;;;10.90;94.60;;;;;;5042386;28;20210;-85
2023/01/05 06:06:40;;;;;;;0.60;0.60;;;10.80;94.60;;;;;;5044884;28;20202;-85
2023/01/05 06:09:06;;;;;;;1.23;1.00;;;10.80;94.90;;;;;;5038170;28;20203;-85
2023/01/05 06:11:33;;;;;;;1.20;0.80;;;10.90;94.50;;;;;;5043153;28;20230;-85
2023/01/05 06:14:01;;;;;;;0.90;0.90;;;10.80;94.60;;;;;;5045092;28;20510;-85
2023/01/05 06:16:29;;;;;;;0.75;0.75;;;10.80;94.50;;;;;;5036967;28;20567;-85
2023/01/05 06:18:55;;;;;;;2.45;1.23;;;10.80;94.70;;;;;;5036917;28;20210;-85
2023/01/05 06:21:22;;;;;;;0.80;0.80;;;10.80;94.70;;;;;;5042339;28;20214;-85
2023/01/05 06:23:51;;;;;;;0.80;0.80;;;10.80;94.50;;;;;;5042524;28;20668;-85
2023/01/05 06:26:18;;;;;;;0.70;0.70;;;10.90;94.60;;;;;;5040843;28;20669;-85
2023/01/05 06:28:45;;;;;;;0.70;0.68;;;10.80;94.50;;;;;;5041539;28;20247;-84
2023/01/05 06:31:13;;;;;;;0.80;0.80;;;10.80;94.60;;;;;;5041384;28;20206;-85
2023/01/05 06:33:39;;;;;;;0.80;0.75;;;10.80;94.70;;;;;;5042275;28;20203;-85
2023/01/05 06:36:07;;;;;;;0.80;0.80;;;10.80;94.90;;;;;;5041329;28;20207;-85
2023/01/05 06:38:34;;;;;;;0.95;0.90;;;10.80;94.60;;;;;;5036544;28;20206;-85
2023/01/05 06:41:02;;;;;;;1.13;1.02;;;10.80;94.80;;;;;;5042956;28;20247;-85
2023/01/05 06:43:29;;;;;;;1.65;1.13;;;10.80;94.80;;;;;;5037242;28;20213;-85
2023/01/05 06:45:56;;;;;;;0.60;0.60;;;10.80;94.70;;;;;;5045300;28;20236;-85
2023/01/05 06:48:23;;;;;;;1.45;1.13;;;10.80;94.70;;;;;;5039453;28;20228;-85
2023/01/05 06:50:50;;;;;;;0.90;0.80;;;10.80;94.80;;;;;;5044247;28;20202;-85
2023/01/05 06:53:17;;;;;;;0.68;0.68;;;10.80;94.80;;;;;;5042883;28;20296;-85
2023/01/05 06:55:45;;;;;;;0.70;0.70;;;10.80;94.80;;;;;;5043937;28;20198;-85
2023/01/05 06:58:13;;;;;;;0.77;0.77;;;10.70;95.00;;;;;;5038230;28;20198;-85
2023/01/05 07:00:40;;;;;;;0.75;0.75;;;10.70;95.10;;;;;;5045132;28;20205;-85
2023/01/05 07:03:07;;;;;;;0.82;0.50;;;10.70;95.10;;;;;;5035366;28;20223;-85
2023/01/05 07:05:34;;;;;;;1.80;0.63;;;10.70;95.00;;;;;;5047398;28;20202;-85
2023/01/05 07:08:01;;;;;;;0.80;0.80;;;10.80;94.80;;;;;;5042465;28;20205;-86
2023/01/05 07:10:29;;;;;;;0.60;0.60;;;10.80;94.90;;;;;;5043130;28;20201;-85
2023/01/05 07:12:56;;;;;;;1.15;0.80;;;10.80;94.90;;;;;;5039265;28;20321;-85
2023/01/05 07:15:24;;;;;;;2.35;0.85;;;10.80;95.20;;;;;;5046563;28;20198;-85
2023/01/05 07:17:52;;;;;;;1.25;1.15;;;10.70;95.00;;;;;;5041681;28;20657;-85
2023/01/05 07:20:19;;;;;;;1.52;0.70;;;10.70;95.20;;;;;;5039089;28;20278;-85
2023/01/05 07:22:46;;;;;;;0.80;0.80;;;10.70;95.70;;;;;;5040555;28;20238;-85
2023/01/05 07:25:12;;;;;;;1.20;0.80;;;10.60;95.90;;;;;;5045714;28;20209;-85
2023/01/05 07:27:39;;;;;;;1.00;0.68;;;10.60;95.90;;;;;;5038593;28;20203;-85
2023/01/05 07:30:07;;;;;;;1.02;0.80;;;10.60;95.90;;;;;;5038635;28;20208;-85
2023/01/05 07:32:36;;;;;;;0.80;0.80;;;10.70;95.80;;;;;;5042824;28;20552;-85
2023/01/05 07:35:03;;;;;;;0.57;0.57;;;10.70;95.60;;;;;;5042085;28;20738;-85
2023/01/05 07:37:30;;;;;;;2.03;0.77;;;10.70;95.40;;;;;;5040889;28;20194;-85
2023/01/05 07:39:57;;;;;;;1.20;0.90;;;10.70;95.20;;;;;;5036808;28;20195;-85
2023/01/05 07:42:24;;;;;;;0.80;0.80;;;10.70;95.20;;;;;;5035109;28;20244;-85
2023/01/05 07:44:52;;;;;;;1.27;0.70;;;10.80;95.00;;;;;;5040497;28;20198;-85
2023/01/05 07:47:19;;;;;;;0.63;0.63;;;10.80;94.90;;;;;;5038144;28;20207;-85
2023/01/05 07:49:47;;;;;;;0.70;0.70;;;10.80;94.90;;;;;;5043985;28;20199;-85
2023/01/05 07:52:14;;;;;;;0.70;0.70;;;10.80;94.90;;;;;;5040201;28;20658;-85
2023/01/05 07:54:40;;;;;;;0.52;0.52;;;10.80;95.00;;;;;;5037921;28;20561;-85
2023/01/05 07:57:07;;;;;;;0.80;0.80;;;10.80;94.80;;;;;;5040272;28;20209;-85
2023/01/05 07:59:34;;;;;;;3.05;0.70;;;10.90;94.50;;;;;;5038572;28;20669;-85
2023/01/05 08:02:01;;;;;;;0.70;0.70;;;10.90;94.40;;;;;;5035793;28;20223;-85
2023/01/05 08:04:28;;;;;;;0.60;0.60;;;10.90;94.20;;;;;;5046212;28;20198;-84
2023/01/05 08:06:56;;;;;;;0.70;0.70;;;11.00;94.20;;;;;;5047604;28;20198;-85
2023/01/05 08:12:08;;;;;;;0.55;0.55;;;10.90;94.50;;;;;;5038104;28;20317;-85
2023/01/05 08:14:35;;;;;;;0.60;0.60;;;11.00;94.30;;;;;;5040886;28;20260;-85
2023/01/05 08:17:02;;;;;;;0.77;0.70;;;11.00;94.30;;;;;;5040279;28;20191;-85
2023/01/05 08:19:29;;;;;;;0.70;0.70;;;11.00;94.30;;;;;;5038763;28;20313;-85
2023/01/05 08:21:57;;;;;;;0.70;0.70;;;11.00;94.10;;;;;;5037324;28;20224;-85
2023/01/05 08:24:26;;;;;;;0.85;0.60;;;11.00;94.10;;;;;;5039254;28;20222;-85
2023/01/05 08:26:53;;;;;;;0.90;0.90;;;11.10;94.30;;;;;;5036911;28;20203;-85
2023/01/05 08:29:20;;;;;;;0.85;0.70;;;11.10;94.80;;;;;;5039051;28;20521;-85
2023/01/05 08:31:47;;;;;;;0.88;0.88;;;11.00;94.90;;;;;;5038884;28;20214;-85
2023/01/05 08:34:14;;;;;;;1.40;0.90;;;10.90;95.50;;;;;;5038054;28;20206;-85
2023/01/05 08:36:41;;;;;;;0.70;0.70;;;11.00;95.30;;;;;;5039551;28;20213;-85
2023/01/05 08:39:11;;;;;;;0.60;0.60;;;10.90;95.30;;;;;;5047369;28;20203;-84
2023/01/05 08:41:39;;;;;;;0.75;0.75;;;11.00;95.10;;;;;;5036283;28;20647;-85
2023/01/05 08:44:08;;;;;;;0.65;0.65;;;11.00;94.90;;;;;;5035287;28;20201;-85
2023/01/05 08:46:36;;;;;;;0.70;0.70;;;11.00;95.90;;;;;;5036494;28;20202;-85
2023/01/05 08:49:05;;;;;;;0.82;0.80;;;10.90;96.50;;;;;;5041005;28;20203;-85
2023/01/05 08:51:33;;;;;;;0.90;0.90;;;10.80;97.00;;;;;;5040008;28;20575;-85
2023/01/05 08:54:00;;;;;;;2.28;0.80;;;10.70;97.60;;;;;;5039295;28;20568;-85
2023/01/05 08:56:28;;;;;;;0.90;0.70;;;10.70;97.70;;;;;;5038265;28;20198;-85
2023/01/05 08:58:57;;;;;;;0.70;0.70;;;10.60;97.80;;;;;;5035316;28;20198;-85
2023/01/05 09:01:25;;;;;;;0.85;0.85;;;10.70;97.50;;;;;;5041942;28;20204;-85
2023/01/05 09:03:51;;;;;;;0.68;0.68;;;10.70;97.10;;;;;;5031176;28;20698;-85
2023/01/05 09:06:19;;;;;;;1.00;1.00;;;10.70;96.80;;;;;;5042932;28;20661;-85
2023/01/05 09:08:47;;;;;;;0.50;0.50;;;10.70;96.50;;;;;;5035036;28;20194;-86
2023/01/05 09:11:16;;;;;;;0.68;0.68;;;10.70;95.90;;;;;;5034743;28;20527;-85
2023/01/05 09:13:48;;;;;;;1.27;0.80;;;10.80;95.90;;;;;;5041131;28;20571;-85
2023/01/05 09:16:17;;;;;;;0.60;0.60;;;10.90;95.90;;;;;;5035922;28;20210;-86
2023/01/05 09:18:45;;;;;;;0.50;0.50;;;10.90;95.90;;;;;;5041928;28;20289;-85
2023/01/05 09:21:13;;;;;;;1.00;0.90;;;11.00;95.40;;;;;;5048651;28;20561;-85
2023/01/05 09:23:40;;;;;;;0.85;0.85;;;11.00;95.40;;;;;;5042665;28;20236;-85
2023/01/05 09:26:09;;;;;;;0.95;0.60;;;11.10;95.10;;;;;;5036994;28;20289;-85
2023/01/05 09:28:36;;;;;;;0.70;0.70;;;11.20;94.40;;;;;;5035464;28;20571;-85
2023/01/05 09:31:10;;;;;;;0.70;0.70;;;11.20;94.40;;;;;;5035704;28;20195;-84
2023/01/05 09:33:37;;;;;;;0.60;0.60;;;11.20;93.70;;;;;;5035229;28;20654;-85
2023/01/05 09:36:05;;;;;;;0.60;0.60;;;11.20;93.90;;;;;;5040944;28;20203;-85
2023/01/05 09:38:35;;;;;;;0.63;0.63;;;11.20;93.80;;;;;;5044775;28;20205;-85
2023/01/05 09:41:09;;;;;;;0.60;0.50;;;11.20;94.00;;;;;;5038892;28;20245;-85
2023/01/05 09:43:38;;;;;;;0.80;0.65;;;11.20;93.50;;;;;;5040881;28;20239;-85
2023/01/05 09:46:11;;;;;;;0.73;0.57;;;11.30;93.30;;;;;;5037611;28;20209;-85
2023/01/05 09:48:42;;;;;;;0.60;0.60;;;11.40;93.00;;;;;;5038837;28;20273;-85
2023/01/05 09:51:09;;;;;;;0.90;0.90;;;11.40;92.70;;;;;;5045355;28;20547;-85
2023/01/05 09:53:37;;;;;;;0.70;0.70;;;11.40;92.40;;;;;;5040474;28;20206;-85
2023/01/05 09:56:05;;;;;;;0.60;0.60;;;11.50;92.10;;;;;;5042035;28;20201;-85
2023/01/05 09:58:38;;;;;;;0.80;0.80;;;11.50;91.60;;;;;;5034810;28;20205;-85
2023/01/05 10:01:12;;;;;;;0.60;0.60;;;11.50;91.40;;;;;;5034378;28;20203;-85
2023/01/05 10:03:42;;;;;;;0.55;0.52;;;11.50;91.20;;;;;;5035924;28;20250;-85
2023/01/05 10:06:13;;;;;;;1.55;0.60;;;11.40;91.50;;;;;;5042002;28;20655;-85
2023/01/05 10:08:44;;;;;;;0.68;0.68;;;11.40;91.70;;;;;;5031588;28;20229;-85
2023/01/05 10:14:05;;;;;;;0.75;0.75;;;11.40;91.90;;;;;;5048643;28;20712;-85
2023/01/05 10:16:33;;;;;;;0.85;0.85;;;11.50;91.70;;;;;;5046425;28;20193;-85
2023/01/05 10:19:01;;;;;;;0.70;0.70;;;11.50;91.40;;;;;;5035900;28;20194;-85
2023/01/05 10:21:36;;;;;;;0.80;0.80;;;11.50;91.10;;;;;;5040748;28;20198;-85
2023/01/05 10:24:20;;;;;;;0.55;0.55;;;11.60;90.60;;;;;;5032367;28;20244;-85
2023/01/05 10:26:53;;;;;;;0.77;0.77;;;11.60;90.70;;;;;;5039120;28;20209;-86
2023/01/05 10:29:24;;;;;;;0.63;0.60;;;11.50;90.60;;;;;;5036030;28;20230;-85
2023/01/05 10:31:59;;;;;;;0.52;0.50;;;11.60;90.30;;;;;;5048750;28;20662;-85
2023/01/05 10:34:43;;;;;;;0.60;0.60;;;11.60;90.10;;;;;;5036472;28;20194;-85
2023/01/05 10:37:35;;;;;;;0.70;0.70;;;11.60;89.40;;;;;;5042068;28;20212;-85
2023/01/05 10:40:13;;;;;;;0.70;0.70;;;11.60;89.80;;;;;;5047154;28;20203;-85
2023/01/05 10:42:50;;;;;;;0.70;0.70;;;11.60;89.70;;;;;;5046334;28;20588;-85
2023/01/05 10:45:19;;;;;;;0.68;0.68;;;11.70;88.70;;;;;;5046646;28;20562;-85
2023/01/05 10:47:49;;;;;;;1.08;0.98;;;11.60;89.80;;;;;;5045154;28;20198;-85
2023/01/05 10:50:33;;;;;;;0.98;0.93;;;11.60;90.10;;;;;;5046528;28;20209;-85
2023/01/05 10:53:04;;;;;;;1.25;0.98;;;11.60;88.50;;;;;;5040825;28;20198;-85
2023/01/05 10:55:32;;;;;;;0.60;0.60;;;11.70;90.00;;;;;;5039782;28;20205;-85
2023/01/05 10:57:59;;;;;;;1.85;0.77;;;11.70;88.30;;;;;;5050014;28;20189;-85
2023/01/05 11:00:41;;;;;;;1.73;0.80;;;11.70;88.80;;;;;;5051141;28;20204;-85
2023/01/05 11:03:14;;;;;;;0.65;0.65;;;11.60;89.20;;;;;;5037250;28;20226;-85
2023/01/05 11:05:44;;;;;;;3.90;1.02;;;11.60;88.80;;;;;;5037569;28;20210;-85
2023/01/05 11:08:17;;;;;;;2.40;0.80;;;11.80;87.90;;;;;;5041413;28;20587;-85
2023/01/05 11:10:51;;;;;;;0.80;0.80;;;11.80;86.90;;;;;;5037905;28;20671;-85
2023/01/05 11:13:26;;;;;;;1.15;0.80;;;11.70;86.50;;;;;;5040308;28;20213;-85
2023/01/05 11:15:55;;;;;;;0.65;0.63;;;11.80;86.60;;;;;;5038607;28;20202;-85
2023/01/05 11:18:27;;;;;;;1.15;0.70;;;11.80;86.10;;;;;;5049237;28;20660;-85
2023/01/05 11:21:12;;;;;;;1.27;0.70;;;11.80;85.80;;;;;;5046370;28;20241;-85
2023/01/05 11:23:42;;;;;;;1.48;0.65;;;11.80;86.40;;;;;;5038856;28;20225;-85
2023/01/05 11:26:26;;;;;;;1.05;0.82;;;11.90;87.40;;;;;;5053011;28;20210;-85
2023/01/05 11:29:05;;;;;;;1.58;0.80;;;11.90;85.40;;;;;;5040624;28;20332;-85
2023/01/05 11:31:35;;;;;;;1.10;0.70;;;11.80;89.40;;;;;;5041265;28;20252;-85
2023/01/05 11:34:14;;;;;;;0.85;0.80;;;11.60;90.70;;;;;;5041151;28;20253;-85
2023/01/05 11:36:41;;;;;;;0.73;0.73;;;11.40;92.10;;;;;;5041994;28;20237;-85
2023/01/05 11:39:19;;;;;;;0.85;0.75;;;11.20;96.00;;;;;;5039089;28;20212;-85
2023/01/05 11:41:46;;;;;;;2.00;0.80;;;10.70;99.00;;;;;;5040775;28;20197;-84
2023/01/05 11:44:20;;;;;;;0.60;0.60;;;10.60;99.90;;;;;;5049249;28;20224;-84
2023/01/05 11:47:05;;;;;;;0.63;0.63;;;10.50;99.90;;;;;;5041392;28;20221;-85
2023/01/05 11:49:35;;;;;;;1.20;0.60;;;10.50;99.90;;;;;;5036414;28;20202;-85
2023/01/05 11:52:01;;;;;;;0.70;0.70;;;10.40;99.90;;;;;;5049014;28;20198;-84
2023/01/05 11:54:37;;;;;;;0.50;0.50;;;10.40;99.90;;;;;;5041565;28;20567;-85
2023/01/05 11:57:14;;;;;;;1.30;0.90;;;10.40;99.90;;;;;;5037107;28;20202;-85
2023/01/05 11:59:41;;;;;;;0.98;0.80;;;10.40;99.90;;;;;;5039649;28;20206;-85
2023/01/05 12:02:32;;;;;;;1.20;0.90;;;10.50;99.90;;;;;;5036797;28;20203;-84
2023/01/05 12:05:15;;;;;;;0.75;0.75;;;10.60;99.90;;;;;;5044771;28;20198;-84
2023/01/05 12:07:49;;;;;;;0.77;0.73;;;10.70;99.90;;;;;;5046991;28;20206;-84
2023/01/05 12:10:40;;;;;;;1.85;0.90;;;10.80;99.90;;;;;;5037055;28;20199;-85
2023/01/05 12:13:18;;;;;;;0.80;0.80;;;10.80;99.90;;;;;;5035874;28;20208;-85
2023/01/05 12:16:04;;;;;;;0.73;0.73;;;10.80;99.90;;;;;;5048642;28;20202;-85
2023/01/05 12:18:51;;;;;;;0.82;0.82;;;10.90;99.70;;;;;;5047167;28;20225;-85
2023/01/05 12:21:23;;;;;;;1.15;0.82;;;11.00;99.50;;;;;;5039957;28;20210;-84
2023/01/05 12:24:05;;;;;;;1.00;0.80;;;11.10;98.70;;;;;;5039960;28;20225;-85
2023/01/05 12:26:39;;;;;;;0.80;0.80;;;11.20;98.50;;;;;;5039530;28;20209;-85
2023/01/05 12:29:24;;;;;;;0.80;0.80;;;11.20;97.90;;;;;;5047274;28;20197;-85
2023/01/05 12:32:16;;;;;;;1.52;1.25;;;11.30;97.60;;;;;;5048576;28;20194;-85
2023/01/05 12:35:06;;;;;;;1.25;1.00;;;11.40;97.70;;;;;;5034684;28;20209;-85
2023/01/05 12:37:45;;;;;;;1.83;0.70;;;11.60;96.70;;;;;;5042285;28;20202;-85
2023/01/05 12:40:31;;;;;;;0.85;0.80;;;11.60;96.20;;;;;;5041112;28;20201;-85
2023/01/05 12:43:01;;;;;;;1.10;0.90;;;11.70;96.10;;;;;;5039452;28;20226;-85
2023/01/05 12:45:51;;;;;;;0.73;0.73;;;11.80;95.30;;;;;;5040042;28;20203;-85
2023/01/05 12:48:23;;;;;;;1.75;0.88;;;11.70;95.50;;;;;;5046677;28;20202;-85
2023/01/05 12:50:56;;;;;;;0.65;0.52;;;11.70;95.30;;;;;;5037098;28;20212;-85
2023/01/05 12:53:35;;;;;;;1.85;1.00;;;11.70;94.80;;;;;;5044406;28;20203;-85
2023/01/05 12:56:20;;;;;;;1.02;0.82;;;11.80;94.70;;;;;;5032435;28;20201;-85
2023/01/05 12:58:57;;;;;;;0.93;0.80;;;11.80;94.50;;;;;;5039637;28;20681;-85
2023/01/05 13:01:29;;;;;;;0.88;0.88;;;11.80;94.30;;;;;;5039322;28;20692;-85
2023/01/05 13:04:00;;;;;;;1.77;0.77;;;11.70;94.40;;;;;;5035523;28;20233;-85
2023/01/05 13:06:36;;;;;;;1.30;0.70;;;11.70;94.00;;;;;;5045445;28;20657;-85
2023/01/05 13:09:12;;;;;;;0.63;0.63;;;11.70;94.50;;;;;;5041526;28;20202;-85
2023/01/05 13:11:45;;;;;;;0.82;0.82;;;11.60;95.00;;;;;;5036639;28;20308;-85
2023/01/05 13:14:17;;;;;;;0.70;0.70;;;11.60;94.40;;;;;;5046354;28;20198;-85
2023/01/05 13:16:48;;;;;;;1.70;1.20;;;11.60;94.60;;;;;;5042676;28;20198;-84
2023/01/05 13:19:20;;;;;;;1.33;1.10;;;11.50;95.30;;;;;;5039024;28;20650;-85
2023/01/05 13:21:48;;;;;;;1.60;1.00;;;11.40;95.70;;;;;;5032898;28;20646;-85
2023/01/05 13:24:23;;;;;;;1.30;1.20;;;11.40;96.10;;;;;;5035938;28;20218;-85
2023/01/05 13:26:51;;;;;;;0.77;0.77;;;11.30;96.00;;;;;;5040099;28;20198;-85
2023/01/05 13:29:23;;;;;;;0.93;0.80;;;11.30;96.00;;;;;;5044686;28;20203;-84
2023/01/05 13:32:23;;;;;;;1.33;0.80;;;11.30;96.10;;;;;;5041719;28;20308;-85
2023/01/05 13:35:40;;;;;;;0.82;0.82;;;11.30;96.50;;;;;;5037144;28;20297;-85
2023/01/05 13:38:48;;;;;;;0.65;0.65;;;11.10;96.90;;;;;;5023821;28;20573;-85
2023/01/05 13:41:41;;;;;;;3.53;1.02;;;11.10;97.50;;;;;;5036542;28;20194;-85
2023/01/05 13:44:25;;;;;;;1.08;0.80;;;11.10;97.80;;;;;;5044989;28;20205;-85
2023/01/05 13:47:16;;;;;;;2.28;0.98;;;11.10;97.60;;;;;;5046335;28;20212;-85